createdAt,value
2019-04-27T00:04:56.389Z,11.90
2019-04-27T00:13:15.176Z,14.27
2019-04-27T00:21:40.821Z,15.43
2019-04-27T00:29:58.267Z,15.30
2019-04-27T00:39:03.518Z,15.77
2019-04-27T00:47:21.248Z,13.53
2019-04-27T00:55:48.429Z,15.13
2019-04-27T01:04:11.005Z,14.97
2019-04-27T01:12:28.451Z,14.60
2019-04-27T01:20:45.913Z,14.50
2019-04-27T01:29:06.818Z,18.27
2019-04-27T01:37:24.275Z,22.05
2019-04-27T01:45:41.729Z,19.40
2019-04-27T01:53:59.502Z,21.70
2019-04-27T02:02:49.407Z,17.90
2019-04-27T02:11:07.344Z,19.60
2019-04-27T02:19:43.172Z,18.30
2019-04-27T02:28:06.923Z,14.90
2019-04-27T02:36:45.758Z,12.18
2019-04-27T02:45:03.419Z,11.60
2019-04-27T02:53:55.843Z,10.60
2019-04-27T03:02:29.979Z,10.10
2019-04-27T03:11:02.727Z,10.23
2019-04-27T03:19:30.617Z,9.37
2019-04-27T03:27:50.267Z,7.97
2019-04-27T03:36:12.501Z,8.37
2019-04-27T03:53:50.938Z,11.17
2019-04-27T04:02:23.452Z,11.12
2019-04-27T04:10:45.192Z,12.27
2019-04-27T04:19:47.404Z,12.00
2019-04-27T04:27:50.648Z,13.10
2019-04-27T04:36:35.910Z,13.27
2019-04-27T04:45:00.440Z,14.67
2019-04-27T04:53:20.182Z,16.67
2019-04-27T05:01:37.397Z,15.70
2019-04-27T05:18:54.743Z,17.27
2019-04-27T05:27:12.272Z,19.60
2019-04-27T05:35:29.825Z,21.00
2019-04-27T05:44:07.554Z,22.10
2019-04-27T05:52:29.487Z,20.20
2019-04-27T06:00:47.322Z,20.80
2019-04-27T06:09:05.544Z,19.47
2019-04-27T06:17:22.996Z,19.13
2019-04-27T06:25:40.488Z,19.30
2019-04-27T06:33:59.568Z,21.40
2019-04-27T06:42:19.144Z,23.60
2019-04-27T06:50:36.322Z,26.57
2019-04-27T06:58:53.795Z,27.77
2019-04-27T07:07:11.254Z,27.53
2019-04-27T07:15:28.798Z,26.37
2019-04-27T07:24:05.624Z,21.83
2019-04-27T07:32:23.197Z,21.80
2019-04-27T07:40:42.049Z,24.30
2019-04-27T07:48:59.753Z,25.33
2019-04-27T07:57:19.811Z,24.23
2019-04-27T08:05:39.040Z,22.03
2019-04-27T08:13:56.604Z,26.27
2019-04-27T08:22:14.189Z,24.27
2019-04-27T08:30:39.389Z,26.80
2019-04-27T08:38:58.750Z,26.50
2019-04-27T08:47:16.095Z,28.47
2019-04-27T08:55:33.841Z,27.80
2019-04-27T09:03:51.614Z,28.47
2019-04-27T09:12:27.168Z,26.70
2019-04-27T09:20:49.071Z,23.77
2019-04-27T09:29:06.704Z,25.45
2019-04-27T09:37:24.141Z,24.23
2019-04-27T09:45:41.593Z,20.43
2019-04-27T09:53:59.089Z,21.10
2019-04-27T10:02:16.625Z,20.88
2019-04-27T10:10:34.085Z,18.80
2019-04-27T10:18:51.604Z,16.23
2019-04-27T10:27:09.404Z,20.37
2019-04-27T10:35:27.001Z,19.80
2019-04-27T10:43:44.445Z,19.57
2019-04-27T10:52:02.213Z,17.17
2019-04-27T11:00:26.150Z,18.13
2019-04-27T11:08:43.578Z,14.47
2019-04-27T11:17:00.986Z,14.50
2019-04-27T11:25:18.489Z,13.07
2019-04-27T11:33:36.381Z,12.70
2019-04-27T11:41:54.016Z,12.00
2019-04-27T11:50:12.768Z,11.53
2019-04-27T11:58:30.247Z,11.97
2019-04-27T12:06:47.705Z,11.73
2019-04-27T12:15:05.864Z,10.20
2019-04-27T12:23:33.024Z,9.97
2019-04-27T12:31:46.523Z,9.87
2019-04-27T12:40:02.783Z,10.30
2019-04-27T12:48:20.296Z,10.40
2019-04-27T12:57:01.068Z,11.90
2019-04-27T13:05:18.547Z,10.33
2019-04-27T13:13:36.782Z,10.93
2019-04-27T13:21:55.903Z,11.43
2019-04-27T13:30:13.725Z,9.97
2019-04-27T13:38:31.167Z,9.40
2019-04-27T13:47:18.110Z,8.85
2019-04-27T13:55:35.540Z,7.33
2019-04-27T14:03:53.061Z,6.77
2019-04-27T14:12:21.280Z,6.97
2019-04-27T14:20:39.161Z,5.60
2019-04-27T14:28:58.293Z,5.27
2019-04-27T14:37:16.041Z,5.10
2019-04-27T14:45:33.521Z,5.53
2019-04-27T14:53:50.957Z,4.70
2019-04-27T15:02:08.748Z,5.00
2019-04-27T15:10:27.039Z,5.00
2019-04-27T15:18:50.776Z,3.57
2019-04-27T15:27:09.880Z,3.77
2019-04-27T15:35:35.584Z,4.20
2019-04-27T15:43:53.898Z,5.12
2019-04-27T15:52:11.372Z,6.60
2019-04-27T16:00:29.052Z,4.50
2019-04-27T16:08:47.393Z,4.67
2019-04-27T16:17:08.155Z,5.33
2019-04-27T16:25:28.207Z,7.40
2019-04-27T16:33:44.418Z,6.60
2019-04-27T16:42:02.088Z,7.27
2019-04-27T16:50:25.367Z,7.60
2019-04-27T16:58:39.840Z,7.50
2019-04-27T17:06:59.078Z,6.20
2019-04-27T17:15:34.821Z,5.40
2019-04-27T17:23:52.279Z,6.17
2019-04-27T17:32:17.468Z,6.15
2019-04-27T17:40:36.046Z,7.20
2019-04-27T17:48:53.608Z,6.43
2019-04-27T17:57:13.522Z,7.67
2019-04-27T18:05:30.289Z,7.90
2019-04-27T18:13:48.748Z,7.73
2019-04-27T18:22:07.219Z,7.00
2019-04-27T18:30:46.884Z,7.70
2019-04-27T18:39:05.623Z,7.30
2019-04-27T18:47:24.604Z,7.73
2019-04-27T18:55:42.095Z,14.73
2019-04-27T19:03:59.591Z,25.70
2019-04-27T19:12:18.232Z,9.73
2019-04-27T19:20:36.049Z,9.60
2019-04-27T19:29:11.793Z,5.70
2019-04-27T19:37:29.261Z,3.50
2019-04-27T19:45:48.250Z,3.80
2019-04-27T19:54:05.919Z,2.90
2019-04-27T20:02:23.424Z,9.40
2019-04-27T20:10:43.032Z,8.80
2019-04-27T20:19:01.505Z,15.73
2019-04-27T20:27:21.065Z,14.20
2019-04-27T20:35:38.354Z,8.87
2019-04-27T20:43:55.885Z,8.40
2019-04-27T20:52:17.290Z,28.43
2019-04-27T21:00:34.860Z,7.35
2019-04-27T21:08:52.412Z,16.33
2019-04-27T21:17:11.599Z,4.07
2019-04-27T21:25:29.221Z,11.03
2019-04-27T21:33:46.690Z,12.30
2019-04-27T21:42:04.244Z,20.87
2019-04-27T21:50:23.252Z,7.72
2019-04-27T21:58:42.012Z,17.20
2019-04-27T22:07:01.252Z,10.77
2019-04-27T22:15:19.069Z,8.37
2019-04-27T22:23:43.040Z,9.77
2019-04-27T22:32:01.680Z,6.70
2019-04-27T22:40:50.919Z,8.00
2019-04-27T22:49:08.487Z,7.40
2019-04-27T22:57:35.575Z,12.10
2019-04-27T23:05:53.208Z,9.43
2019-04-27T23:14:11.154Z,4.45
2019-04-27T23:22:38.267Z,11.22
2019-04-27T23:31:02.540Z,15.07
2019-04-27T23:39:20.117Z,5.37
2019-04-27T23:47:37.716Z,9.73
2019-04-27T23:55:55.180Z,9.43
